sensor_id;sensor_type;location;lat;lon;timestamp;P1;durP1;ratioP1;P2;durP2;ratioP2
22024;SDS011;11176;51.448;6.650;2023-07-13T00:00:08;4.03;;;1.30;;
22024;SDS011;11176;51.448;6.650;2023-07-13T00:02:40;4.45;;;1.13;;
22024;SDS011;11176;51.448;6.650;2023-07-13T00:05:06;3.47;;;1.02;;
22024;SDS011;11176;51.448;6.650;2023-07-13T00:07:33;4.88;;;1.20;;
22024;SDS011;11176;51.448;6.650;2023-07-13T00:10:01;5.05;;;1.27;;
22024;SDS011;11176;51.448;6.650;2023-07-13T00:12:30;4.10;;;1.20;;
22024;SDS011;11176;51.448;6.650;2023-07-13T00:14:59;3.25;;;1.50;;
22024;SDS011;11176;51.448;6.650;2023-07-13T00:17:27;4.13;;;1.00;;
22024;SDS011;11176;51.448;6.650;2023-07-13T00:19:54;4.13;;;1.25;;
22024;SDS011;11176;51.448;6.650;2023-07-13T00:22:23;4.78;;;1.20;;
22024;SDS011;11176;51.448;6.650;2023-07-13T00:24:53;4.63;;;1.00;;
22024;SDS011;11176;51.448;6.650;2023-07-13T00:27:23;2.85;;;1.00;;
22024;SDS011;11176;51.448;6.650;2023-07-13T00:29:52;5.40;;;1.30;;
22024;SDS011;11176;51.448;6.650;2023-07-13T00:32:19;5.97;;;1.15;;
22024;SDS011;11176;51.448;6.650;2023-07-13T00:34:46;4.15;;;1.00;;
22024;SDS011;11176;51.448;6.650;2023-07-13T00:37:14;3.58;;;1.13;;
22024;SDS011;11176;51.448;6.650;2023-07-13T00:39:41;4.13;;;1.38;;
22024;SDS011;11176;51.448;6.650;2023-07-13T00:42:08;3.88;;;1.08;;
22024;SDS011;11176;51.448;6.650;2023-07-13T00:44:35;4.93;;;1.58;;
22024;SDS011;11176;51.448;6.650;2023-07-13T00:47:02;3.58;;;1.25;;
22024;SDS011;11176;51.448;6.650;2023-07-13T00:49:29;4.07;;;1.33;;
22024;SDS011;11176;51.448;6.650;2023-07-13T00:52:00;5.68;;;1.27;;
22024;SDS011;11176;51.448;6.650;2023-07-13T00:54:31;6.65;;;1.38;;
22024;SDS011;11176;51.448;6.650;2023-07-13T00:57:00;4.13;;;1.38;;
22024;SDS011;11176;51.448;6.650;2023-07-13T00:59:29;6.03;;;1.25;;
22024;SDS011;11176;51.448;6.650;2023-07-13T01:01:56;4.07;;;1.30;;
22024;SDS011;11176;51.448;6.650;2023-07-13T01:04:24;3.95;;;1.30;;
22024;SDS011;11176;51.448;6.650;2023-07-13T01:06:52;6.05;;;1.20;;
22024;SDS011;11176;51.448;6.650;2023-07-13T01:09:20;2.95;;;1.00;;
22024;SDS011;11176;51.448;6.650;2023-07-13T01:11:47;4.55;;;1.35;;
22024;SDS011;11176;51.448;6.650;2023-07-13T01:14:14;5.47;;;1.25;;
22024;SDS011;11176;51.448;6.650;2023-07-13T01:16:43;6.72;;;1.33;;
22024;SDS011;11176;51.448;6.650;2023-07-13T01:22:06;3.78;;;1.20;;
22024;SDS011;11176;51.448;6.650;2023-07-13T01:24:39;4.05;;;1.25;;
22024;SDS011;11176;51.448;6.650;2023-07-13T01:27:09;5.00;;;1.30;;
22024;SDS011;11176;51.448;6.650;2023-07-13T01:29:39;3.83;;;1.33;;
22024;SDS011;11176;51.448;6.650;2023-07-13T01:32:10;5.45;;;1.45;;
22024;SDS011;11176;51.448;6.650;2023-07-13T01:34:39;4.90;;;1.20;;
22024;SDS011;11176;51.448;6.650;2023-07-13T01:37:09;5.00;;;1.38;;
22024;SDS011;11176;51.448;6.650;2023-07-13T01:39:36;6.35;;;1.67;;
22024;SDS011;11176;51.448;6.650;2023-07-13T01:42:03;3.60;;;1.25;;
22024;SDS011;11176;51.448;6.650;2023-07-13T01:44:30;4.97;;;1.17;;
22024;SDS011;11176;51.448;6.650;2023-07-13T01:46:56;5.18;;;1.52;;
22024;SDS011;11176;51.448;6.650;2023-07-13T01:49:24;4.10;;;1.27;;
22024;SDS011;11176;51.448;6.650;2023-07-13T01:51:51;5.50;;;1.60;;
22024;SDS011;11176;51.448;6.650;2023-07-13T01:54:17;5.93;;;1.27;;
22024;SDS011;11176;51.448;6.650;2023-07-13T01:56:44;5.05;;;1.50;;
22024;SDS011;11176;51.448;6.650;2023-07-13T01:59:11;4.68;;;1.60;;
22024;SDS011;11176;51.448;6.650;2023-07-13T02:01:37;5.25;;;1.30;;
22024;SDS011;11176;51.448;6.650;2023-07-13T02:04:04;5.45;;;1.20;;
22024;SDS011;11176;51.448;6.650;2023-07-13T02:06:32;6.50;;;1.58;;
22024;SDS011;11176;51.448;6.650;2023-07-13T02:08:59;4.72;;;1.35;;
22024;SDS011;11176;51.448;6.650;2023-07-13T02:11:25;5.35;;;1.27;;
22024;SDS011;11176;51.448;6.650;2023-07-13T02:13:59;3.42;;;1.20;;
22024;SDS011;11176;51.448;6.650;2023-07-13T02:16:28;4.65;;;1.27;;
22024;SDS011;11176;51.448;6.650;2023-07-13T02:18:55;3.60;;;1.55;;
22024;SDS011;11176;51.448;6.650;2023-07-13T02:21:22;7.03;;;1.52;;
22024;SDS011;11176;51.448;6.650;2023-07-13T02:23:50;4.70;;;1.15;;
22024;SDS011;11176;51.448;6.650;2023-07-13T02:26:18;5.97;;;1.60;;
22024;SDS011;11176;51.448;6.650;2023-07-13T02:28:46;5.75;;;1.52;;
22024;SDS011;11176;51.448;6.650;2023-07-13T02:31:14;4.00;;;1.20;;
22024;SDS011;11176;51.448;6.650;2023-07-13T02:33:42;4.43;;;1.38;;
22024;SDS011;11176;51.448;6.650;2023-07-13T02:36:10;6.50;;;1.55;;
22024;SDS011;11176;51.448;6.650;2023-07-13T02:38:37;4.85;;;1.38;;
22024;SDS011;11176;51.448;6.650;2023-07-13T02:41:04;4.07;;;1.30;;
22024;SDS011;11176;51.448;6.650;2023-07-13T02:43:33;6.18;;;1.25;;
22024;SDS011;11176;51.448;6.650;2023-07-13T02:46:00;5.60;;;1.55;;
22024;SDS011;11176;51.448;6.650;2023-07-13T02:48:34;4.22;;;1.30;;
22024;SDS011;11176;51.448;6.650;2023-07-13T02:51:02;4.95;;;1.42;;
22024;SDS011;11176;51.448;6.650;2023-07-13T02:53:29;6.03;;;1.70;;
22024;SDS011;11176;51.448;6.650;2023-07-13T02:55:56;3.28;;;1.40;;
22024;SDS011;11176;51.448;6.650;2023-07-13T02:58:22;7.45;;;1.70;;
22024;SDS011;11176;51.448;6.650;2023-07-13T03:00:49;4.80;;;1.65;;
22024;SDS011;11176;51.448;6.650;2023-07-13T03:03:16;4.13;;;1.40;;
22024;SDS011;11176;51.448;6.650;2023-07-13T03:05:43;3.90;;;1.70;;
22024;SDS011;11176;51.448;6.650;2023-07-13T03:08:12;3.45;;;1.42;;
22024;SDS011;11176;51.448;6.650;2023-07-13T03:10:40;5.47;;;1.50;;
22024;SDS011;11176;51.448;6.650;2023-07-13T03:13:09;4.13;;;1.42;;
22024;SDS011;11176;51.448;6.650;2023-07-13T03:15:36;5.07;;;1.38;;
22024;SDS011;11176;51.448;6.650;2023-07-13T03:18:03;3.85;;;1.13;;
22024;SDS011;11176;51.448;6.650;2023-07-13T03:20:32;5.45;;;1.60;;
22024;SDS011;11176;51.448;6.650;2023-07-13T03:23:00;5.60;;;1.73;;
22024;SDS011;11176;51.448;6.650;2023-07-13T03:25:27;4.30;;;1.50;;
22024;SDS011;11176;51.448;6.650;2023-07-13T03:27:54;3.70;;;1.35;;
22024;SDS011;11176;51.448;6.650;2023-07-13T03:30:21;4.82;;;1.60;;
22024;SDS011;11176;51.448;6.650;2023-07-13T03:32:49;4.30;;;1.63;;
22024;SDS011;11176;51.448;6.650;2023-07-13T03:35:16;3.22;;;1.40;;
22024;SDS011;11176;51.448;6.650;2023-07-13T03:37:43;4.20;;;1.67;;
22024;SDS011;11176;51.448;6.650;2023-07-13T03:40:14;6.28;;;1.70;;
22024;SDS011;11176;51.448;6.650;2023-07-13T03:42:44;5.78;;;1.70;;
22024;SDS011;11176;51.448;6.650;2023-07-13T03:45:13;5.78;;;1.80;;
22024;SDS011;11176;51.448;6.650;2023-07-13T03:47:39;6.50;;;1.60;;
22024;SDS011;11176;51.448;6.650;2023-07-13T03:50:06;3.80;;;1.25;;
22024;SDS011;11176;51.448;6.650;2023-07-13T03:52:34;9.32;;;2.13;;
22024;SDS011;11176;51.448;6.650;2023-07-13T03:55:01;6.05;;;1.52;;
22024;SDS011;11176;51.448;6.650;2023-07-13T03:57:27;5.70;;;1.80;;
22024;SDS011;11176;51.448;6.650;2023-07-13T03:59:55;6.50;;;1.63;;
22024;SDS011;11176;51.448;6.650;2023-07-13T04:02:22;5.47;;;1.70;;
22024;SDS011;11176;51.448;6.650;2023-07-13T04:04:49;6.85;;;2.25;;
22024;SDS011;11176;51.448;6.650;2023-07-13T04:07:15;6.28;;;1.75;;
22024;SDS011;11176;51.448;6.650;2023-07-13T04:09:42;4.53;;;1.38;;
22024;SDS011;11176;51.448;6.650;2023-07-13T04:12:09;4.95;;;1.45;;
22024;SDS011;11176;51.448;6.650;2023-07-13T04:14:36;4.43;;;1.70;;
22024;SDS011;11176;51.448;6.650;2023-07-13T04:17:03;5.20;;;1.52;;
22024;SDS011;11176;51.448;6.650;2023-07-13T04:19:30;5.50;;;1.80;;
22024;SDS011;11176;51.448;6.650;2023-07-13T04:21:57;5.90;;;1.50;;
22024;SDS011;11176;51.448;6.650;2023-07-13T04:24:23;4.38;;;1.55;;
22024;SDS011;11176;51.448;6.650;2023-07-13T04:26:49;7.70;;;1.80;;
22024;SDS011;11176;51.448;6.650;2023-07-13T04:29:16;6.85;;;1.73;;
22024;SDS011;11176;51.448;6.650;2023-07-13T04:31:42;5.97;;;1.80;;
22024;SDS011;11176;51.448;6.650;2023-07-13T04:34:09;7.72;;;1.70;;
22024;SDS011;11176;51.448;6.650;2023-07-13T04:36:35;6.00;;;1.75;;
22024;SDS011;11176;51.448;6.650;2023-07-13T04:39:04;8.07;;;1.63;;
22024;SDS011;11176;51.448;6.650;2023-07-13T04:41:30;5.75;;;1.83;;
22024;SDS011;11176;51.448;6.650;2023-07-13T04:43:57;5.85;;;2.08;;
22024;SDS011;11176;51.448;6.650;2023-07-13T04:46:23;5.07;;;1.48;;
22024;SDS011;11176;51.448;6.650;2023-07-13T04:48:50;5.25;;;1.55;;
22024;SDS011;11176;51.448;6.650;2023-07-13T04:51:19;5.93;;;1.70;;
22024;SDS011;11176;51.448;6.650;2023-07-13T04:53:46;5.18;;;1.63;;
22024;SDS011;11176;51.448;6.650;2023-07-13T04:56:13;5.75;;;1.73;;
22024;SDS011;11176;51.448;6.650;2023-07-13T04:58:39;6.45;;;2.13;;
22024;SDS011;11176;51.448;6.650;2023-07-13T05:01:06;10.45;;;2.45;;
22024;SDS011;11176;51.448;6.650;2023-07-13T05:03:34;8.95;;;2.30;;
22024;SDS011;11176;51.448;6.650;2023-07-13T05:06:02;6.45;;;1.75;;
22024;SDS011;11176;51.448;6.650;2023-07-13T05:08:31;10.25;;;2.50;;
22024;SDS011;11176;51.448;6.650;2023-07-13T05:11:04;10.38;;;2.03;;
22024;SDS011;11176;51.448;6.650;2023-07-13T05:13:31;6.50;;;2.03;;
22024;SDS011;11176;51.448;6.650;2023-07-13T05:15:58;6.93;;;2.20;;
22024;SDS011;11176;51.448;6.650;2023-07-13T05:18:26;8.98;;;2.42;;
22024;SDS011;11176;51.448;6.650;2023-07-13T05:21:01;8.25;;;2.30;;
22024;SDS011;11176;51.448;6.650;2023-07-13T05:23:30;9.75;;;2.55;;
22024;SDS011;11176;51.448;6.650;2023-07-13T05:25:58;6.43;;;2.15;;
22024;SDS011;11176;51.448;6.650;2023-07-13T05:28:25;4.60;;;1.95;;
22024;SDS011;11176;51.448;6.650;2023-07-13T05:30:55;9.20;;;2.20;;
22024;SDS011;11176;51.448;6.650;2023-07-13T05:33:22;8.43;;;2.83;;
22024;SDS011;11176;51.448;6.650;2023-07-13T05:35:49;8.40;;;2.58;;
22024;SDS011;11176;51.448;6.650;2023-07-13T05:38:15;8.18;;;2.30;;
22024;SDS011;11176;51.448;6.650;2023-07-13T05:40:43;5.78;;;2.00;;
22024;SDS011;11176;51.448;6.650;2023-07-13T05:43:10;6.43;;;2.10;;
22024;SDS011;11176;51.448;6.650;2023-07-13T05:45:37;7.30;;;2.45;;
22024;SDS011;11176;51.448;6.650;2023-07-13T05:48:04;6.88;;;2.95;;
22024;SDS011;11176;51.448;6.650;2023-07-13T05:50:31;8.15;;;2.72;;
22024;SDS011;11176;51.448;6.650;2023-07-13T05:52:58;9.32;;;2.80;;
22024;SDS011;11176;51.448;6.650;2023-07-13T05:55:24;8.63;;;2.58;;
22024;SDS011;11176;51.448;6.650;2023-07-13T05:57:50;8.90;;;2.33;;
22024;SDS011;11176;51.448;6.650;2023-07-13T06:00:17;11.85;;;3.13;;
22024;SDS011;11176;51.448;6.650;2023-07-13T06:02:44;6.45;;;2.30;;
22024;SDS011;11176;51.448;6.650;2023-07-13T06:05:12;9.15;;;2.70;;
22024;SDS011;11176;51.448;6.650;2023-07-13T06:07:40;7.05;;;2.50;;
22024;SDS011;11176;51.448;6.650;2023-07-13T06:10:07;9.75;;;2.90;;
22024;SDS011;11176;51.448;6.650;2023-07-13T06:12:34;7.32;;;2.75;;
22024;SDS011;11176;51.448;6.650;2023-07-13T06:15:01;7.65;;;2.45;;
22024;SDS011;11176;51.448;6.650;2023-07-13T06:17:28;12.57;;;2.65;;
22024;SDS011;11176;51.448;6.650;2023-07-13T06:19:54;8.50;;;2.72;;
22024;SDS011;11176;51.448;6.650;2023-07-13T06:22:21;5.90;;;3.00;;
22024;SDS011;11176;51.448;6.650;2023-07-13T06:24:47;9.43;;;2.80;;
22024;SDS011;11176;51.448;6.650;2023-07-13T06:27:14;8.70;;;2.55;;
22024;SDS011;11176;51.448;6.650;2023-07-13T06:29:40;10.45;;;3.30;;
22024;SDS011;11176;51.448;6.650;2023-07-13T06:32:07;8.57;;;2.65;;
22024;SDS011;11176;51.448;6.650;2023-07-13T06:34:34;15.20;;;3.47;;
22024;SDS011;11176;51.448;6.650;2023-07-13T06:37:00;10.13;;;3.20;;
22024;SDS011;11176;51.448;6.650;2023-07-13T06:39:27;9.75;;;3.38;;
22024;SDS011;11176;51.448;6.650;2023-07-13T06:41:53;10.65;;;3.13;;
22024;SDS011;11176;51.448;6.650;2023-07-13T06:44:20;11.45;;;3.13;;
22024;SDS011;11176;51.448;6.650;2023-07-13T06:46:46;10.85;;;3.20;;
22024;SDS011;11176;51.448;6.650;2023-07-13T06:49:13;10.57;;;3.67;;
22024;SDS011;11176;51.448;6.650;2023-07-13T06:51:39;11.85;;;3.88;;
22024;SDS011;11176;51.448;6.650;2023-07-13T06:54:06;8.85;;;3.15;;
22024;SDS011;11176;51.448;6.650;2023-07-13T06:56:32;12.48;;;3.67;;
22024;SDS011;11176;51.448;6.650;2023-07-13T06:58:59;6.18;;;2.67;;
22024;SDS011;11176;51.448;6.650;2023-07-13T07:01:25;9.75;;;2.85;;
22024;SDS011;11176;51.448;6.650;2023-07-13T07:03:52;10.60;;;3.67;;
22024;SDS011;11176;51.448;6.650;2023-07-13T07:06:19;9.82;;;3.75;;
22024;SDS011;11176;51.448;6.650;2023-07-13T07:08:49;10.52;;;4.00;;
22024;SDS011;11176;51.448;6.650;2023-07-13T07:11:19;10.85;;;3.00;;
22024;SDS011;11176;51.448;6.650;2023-07-13T07:13:49;7.82;;;3.15;;
22024;SDS011;11176;51.448;6.650;2023-07-13T07:16:17;11.43;;;3.95;;
22024;SDS011;11176;51.448;6.650;2023-07-13T07:18:44;17.70;;;4.10;;
22024;SDS011;11176;51.448;6.650;2023-07-13T07:21:11;12.32;;;4.05;;
22024;SDS011;11176;51.448;6.650;2023-07-13T07:23:39;10.52;;;3.50;;
22024;SDS011;11176;51.448;6.650;2023-07-13T07:26:05;10.15;;;3.65;;
22024;SDS011;11176;51.448;6.650;2023-07-13T07:28:34;9.25;;;3.47;;
22024;SDS011;11176;51.448;6.650;2023-07-13T07:31:04;9.15;;;3.70;;
22024;SDS011;11176;51.448;6.650;2023-07-13T07:33:34;11.25;;;3.58;;
22024;SDS011;11176;51.448;6.650;2023-07-13T07:36:01;10.35;;;3.10;;
22024;SDS011;11176;51.448;6.650;2023-07-13T07:38:31;11.02;;;3.70;;
22024;SDS011;11176;51.448;6.650;2023-07-13T07:40:57;8.63;;;3.45;;
22024;SDS011;11176;51.448;6.650;2023-07-13T07:43:27;10.15;;;3.25;;
22024;SDS011;11176;51.448;6.650;2023-07-13T07:45:53;13.25;;;3.55;;
22024;SDS011;11176;51.448;6.650;2023-07-13T07:48:20;8.60;;;3.30;;
22024;SDS011;11176;51.448;6.650;2023-07-13T07:50:46;9.27;;;3.28;;
22024;SDS011;11176;51.448;6.650;2023-07-13T07:53:13;8.80;;;3.25;;
22024;SDS011;11176;51.448;6.650;2023-07-13T07:55:39;9.70;;;3.00;;
22024;SDS011;11176;51.448;6.650;2023-07-13T07:58:26;9.30;;;3.60;;
22024;SDS011;11176;51.448;6.650;2023-07-13T08:01:01;11.27;;;3.70;;
22024;SDS011;11176;51.448;6.650;2023-07-13T08:03:34;8.88;;;3.33;;
22024;SDS011;11176;51.448;6.650;2023-07-13T08:06:03;10.88;;;3.35;;
22024;SDS011;11176;51.448;6.650;2023-07-13T08:08:34;7.93;;;3.30;;
22024;SDS011;11176;51.448;6.650;2023-07-13T08:11:05;9.45;;;3.22;;
22024;SDS011;11176;51.448;6.650;2023-07-13T08:13:36;9.23;;;3.05;;
22024;SDS011;11176;51.448;6.650;2023-07-13T08:16:04;8.27;;;3.22;;
22024;SDS011;11176;51.448;6.650;2023-07-13T08:18:32;9.40;;;3.65;;
22024;SDS011;11176;51.448;6.650;2023-07-13T08:21:02;9.73;;;4.03;;
22024;SDS011;11176;51.448;6.650;2023-07-13T08:23:30;8.93;;;4.05;;
22024;SDS011;11176;51.448;6.650;2023-07-13T08:25:59;9.25;;;3.70;;
22024;SDS011;11176;51.448;6.650;2023-07-13T08:28:27;11.68;;;3.75;;
22024;SDS011;11176;51.448;6.650;2023-07-13T08:30:54;10.27;;;3.38;;
22024;SDS011;11176;51.448;6.650;2023-07-13T08:33:21;9.13;;;3.30;;
22024;SDS011;11176;51.448;6.650;2023-07-13T08:35:50;6.90;;;3.40;;
22024;SDS011;11176;51.448;6.650;2023-07-13T08:38:17;12.90;;;3.97;;
22024;SDS011;11176;51.448;6.650;2023-07-13T08:40:45;9.38;;;4.10;;
22024;SDS011;11176;51.448;6.650;2023-07-13T08:43:18;9.65;;;3.33;;
22024;SDS011;11176;51.448;6.650;2023-07-13T08:45:55;9.93;;;3.42;;
22024;SDS011;11176;51.448;6.650;2023-07-13T08:48:35;9.98;;;3.03;;
22024;SDS011;11176;51.448;6.650;2023-07-13T08:51:23;9.68;;;3.50;;
22024;SDS011;11176;51.448;6.650;2023-07-13T08:53:57;6.68;;;2.80;;
22024;SDS011;11176;51.448;6.650;2023-07-13T08:56:28;6.32;;;2.55;;
22024;SDS011;11176;51.448;6.650;2023-07-13T08:58:57;7.85;;;2.95;;
22024;SDS011;11176;51.448;6.650;2023-07-13T09:04:11;11.52;;;2.75;;
22024;SDS011;11176;51.448;6.650;2023-07-13T09:06:59;8.27;;;2.97;;
22024;SDS011;11176;51.448;6.650;2023-07-13T09:14:54;6.90;;;2.72;;
22024;SDS011;11176;51.448;6.650;2023-07-13T09:17:25;6.75;;;2.63;;
22024;SDS011;11176;51.448;6.650;2023-07-13T09:20:26;9.15;;;2.75;;
22024;SDS011;11176;51.448;6.650;2023-07-13T09:22:56;8.98;;;3.10;;
22024;SDS011;11176;51.448;6.650;2023-07-13T09:25:29;10.88;;;3.55;;
22024;SDS011;11176;51.448;6.650;2023-07-13T09:28:41;8.70;;;3.42;;
22024;SDS011;11176;51.448;6.650;2023-07-13T09:31:06;7.88;;;3.05;;
22024;SDS011;11176;51.448;6.650;2023-07-13T09:33:40;8.38;;;3.15;;
22024;SDS011;11176;51.448;6.650;2023-07-13T09:36:27;6.88;;;2.92;;
22024;SDS011;11176;51.448;6.650;2023-07-13T09:39:15;8.95;;;3.40;;
22024;SDS011;11176;51.448;6.650;2023-07-13T09:44:42;9.40;;;3.03;;
22024;SDS011;11176;51.448;6.650;2023-07-13T09:47:18;11.75;;;3.65;;
22024;SDS011;11176;51.448;6.650;2023-07-13T09:50:25;9.82;;;3.38;;
22024;SDS011;11176;51.448;6.650;2023-07-13T09:52:48;9.45;;;3.25;;
22024;SDS011;11176;51.448;6.650;2023-07-13T09:57:51;8.68;;;2.97;;
22024;SDS011;11176;51.448;6.650;2023-07-13T10:00:26;9.00;;;3.33;;
22024;SDS011;11176;51.448;6.650;2023-07-13T10:03:37;7.53;;;3.08;;
22024;SDS011;11176;51.448;6.650;2023-07-13T10:05:49;8.80;;;2.50;;
22024;SDS011;11176;51.448;6.650;2023-07-13T10:08:17;6.57;;;3.05;;
22024;SDS011;11176;51.448;6.650;2023-07-13T10:10:46;8.10;;;2.50;;
22024;SDS011;11176;51.448;6.650;2023-07-13T10:16:06;6.22;;;2.35;;
22024;SDS011;11176;51.448;6.650;2023-07-13T10:18:39;8.45;;;2.70;;
22024;SDS011;11176;51.448;6.650;2023-07-13T10:21:19;9.68;;;2.42;;
22024;SDS011;11176;51.448;6.650;2023-07-13T10:23:54;7.80;;;2.63;;
22024;SDS011;11176;51.448;6.650;2023-07-13T10:26:26;8.95;;;2.45;;
22024;SDS011;11176;51.448;6.650;2023-07-13T10:28:59;7.55;;;2.58;;
22024;SDS011;11176;51.448;6.650;2023-07-13T10:31:30;6.50;;;2.10;;
22024;SDS011;11176;51.448;6.650;2023-07-13T10:33:57;6.05;;;2.03;;
22024;SDS011;11176;51.448;6.650;2023-07-13T10:36:28;6.70;;;2.25;;
22024;SDS011;11176;51.448;6.650;2023-07-13T10:39:01;11.27;;;2.13;;
22024;SDS011;11176;51.448;6.650;2023-07-13T10:41:31;7.72;;;1.98;;
22024;SDS011;11176;51.448;6.650;2023-07-13T10:44:01;5.65;;;1.80;;
22024;SDS011;11176;51.448;6.650;2023-07-13T10:46:30;4.13;;;1.70;;
22024;SDS011;11176;51.448;6.650;2023-07-13T10:48:58;7.13;;;1.88;;
22024;SDS011;11176;51.448;6.650;2023-07-13T10:51:30;9.15;;;2.10;;
22024;SDS011;11176;51.448;6.650;2023-07-13T10:54:11;9.30;;;2.00;;
22024;SDS011;11176;51.448;6.650;2023-07-13T10:56:46;6.25;;;1.83;;
22024;SDS011;11176;51.448;6.650;2023-07-13T11:01:55;5.25;;;1.85;;
22024;SDS011;11176;51.448;6.650;2023-07-13T11:04:25;6.40;;;2.25;;
22024;SDS011;11176;51.448;6.650;2023-07-13T11:06:56;5.65;;;1.67;;
22024;SDS011;11176;51.448;6.650;2023-07-13T11:12:07;7.03;;;1.98;;
22024;SDS011;11176;51.448;6.650;2023-07-13T11:22:42;6.15;;;1.90;;
22024;SDS011;11176;51.448;6.650;2023-07-13T11:27:50;4.75;;;1.70;;
22024;SDS011;11176;51.448;6.650;2023-07-13T11:32:51;6.27;;;1.47;;
22024;SDS011;11176;51.448;6.650;2023-07-13T11:40:54;6.13;;;1.40;;
22024;SDS011;11176;51.448;6.650;2023-07-13T11:43:24;4.68;;;1.88;;
22024;SDS011;11176;51.448;6.650;2023-07-13T11:45:52;5.82;;;1.55;;
22024;SDS011;11176;51.448;6.650;2023-07-13T11:48:23;7.75;;;1.38;;
22024;SDS011;11176;51.448;6.650;2023-07-13T11:50:54;5.20;;;1.60;;
22024;SDS011;11176;51.448;6.650;2023-07-13T11:53:26;4.40;;;1.30;;
22024;SDS011;11176;51.448;6.650;2023-07-13T11:55:55;5.78;;;1.50;;
22024;SDS011;11176;51.448;6.650;2023-07-13T11:58:23;5.40;;;1.20;;
22024;SDS011;11176;51.448;6.650;2023-07-13T12:00:52;6.57;;;1.55;;
22024;SDS011;11176;51.448;6.650;2023-07-13T12:03:21;4.85;;;1.52;;
22024;SDS011;11176;51.448;6.650;2023-07-13T12:05:57;5.53;;;1.40;;
22024;SDS011;11176;51.448;6.650;2023-07-13T12:08:25;3.97;;;1.33;;
22024;SDS011;11176;51.448;6.650;2023-07-13T12:10:56;4.82;;;1.48;;
22024;SDS011;11176;51.448;6.650;2023-07-13T12:13:26;4.32;;;1.20;;
22024;SDS011;11176;51.448;6.650;2023-07-13T12:15:54;3.05;;;1.15;;
22024;SDS011;11176;51.448;6.650;2023-07-13T12:18:23;4.80;;;1.58;;
22024;SDS011;11176;51.448;6.650;2023-07-13T12:20:55;5.20;;;1.65;;
22024;SDS011;11176;51.448;6.650;2023-07-13T12:23:25;5.80;;;1.50;;
22024;SDS011;11176;51.448;6.650;2023-07-13T12:25:52;5.05;;;1.50;;
22024;SDS011;11176;51.448;6.650;2023-07-13T12:28:20;4.70;;;1.30;;
22024;SDS011;11176;51.448;6.650;2023-07-13T12:30:59;5.82;;;1.60;;
22024;SDS011;11176;51.448;6.650;2023-07-13T12:33:30;5.97;;;1.67;;
22024;SDS011;11176;51.448;6.650;2023-07-13T12:36:02;4.18;;;1.60;;
22024;SDS011;11176;51.448;6.650;2023-07-13T12:38:31;6.00;;;1.20;;
22024;SDS011;11176;51.448;6.650;2023-07-13T12:40:58;4.60;;;1.52;;
22024;SDS011;11176;51.448;6.650;2023-07-13T12:43:28;7.07;;;1.35;;
22024;SDS011;11176;51.448;6.650;2023-07-13T12:46:05;5.07;;;1.30;;
22024;SDS011;11176;51.448;6.650;2023-07-13T12:48:43;4.93;;;1.70;;
22024;SDS011;11176;51.448;6.650;2023-07-13T12:51:24;5.10;;;1.65;;
22024;SDS011;11176;51.448;6.650;2023-07-13T12:54:05;5.20;;;1.73;;
22024;SDS011;11176;51.448;6.650;2023-07-13T12:56:39;5.57;;;1.40;;
22024;SDS011;11176;51.448;6.650;2023-07-13T12:59:06;5.00;;;1.38;;
22024;SDS011;11176;51.448;6.650;2023-07-13T13:01:41;4.22;;;1.17;;
22024;SDS011;11176;51.448;6.650;2023-07-13T13:04:08;4.70;;;1.20;;
22024;SDS011;11176;51.448;6.650;2023-07-13T13:06:37;5.07;;;1.50;;
22024;SDS011;11176;51.448;6.650;2023-07-13T13:09:05;4.70;;;1.42;;
22024;SDS011;11176;51.448;6.650;2023-07-13T13:14:04;4.13;;;1.30;;
22024;SDS011;11176;51.448;6.650;2023-07-13T13:16:34;4.45;;;1.30;;
22024;SDS011;11176;51.448;6.650;2023-07-13T13:19:22;5.28;;;1.25;;
22024;SDS011;11176;51.448;6.650;2023-07-13T13:21:54;5.90;;;1.25;;
22024;SDS011;11176;51.448;6.650;2023-07-13T13:24:23;3.42;;;1.20;;
22024;SDS011;11176;51.448;6.650;2023-07-13T13:26:52;6.57;;;1.35;;
22024;SDS011;11176;51.448;6.650;2023-07-13T13:29:21;3.95;;;1.23;;
22024;SDS011;11176;51.448;6.650;2023-07-13T13:31:52;5.10;;;1.88;;
22024;SDS011;11176;51.448;6.650;2023-07-13T13:34:22;2.95;;;1.13;;
22024;SDS011;11176;51.448;6.650;2023-07-13T13:36:50;4.15;;;1.40;;
22024;SDS011;11176;51.448;6.650;2023-07-13T13:39:24;5.00;;;1.50;;
22024;SDS011;11176;51.448;6.650;2023-07-13T13:41:55;5.03;;;1.23;;
22024;SDS011;11176;51.448;6.650;2023-07-13T13:44:21;2.90;;;0.90;;
22024;SDS011;11176;51.448;6.650;2023-07-13T13:46:50;4.95;;;1.50;;
22024;SDS011;11176;51.448;6.650;2023-07-13T13:49:23;3.55;;;1.20;;
22024;SDS011;11176;51.448;6.650;2023-07-13T13:51:51;5.68;;;1.48;;
22024;SDS011;11176;51.448;6.650;2023-07-13T13:54:19;4.05;;;1.10;;
22024;SDS011;11176;51.448;6.650;2023-07-13T13:56:48;3.38;;;1.30;;
22024;SDS011;11176;51.448;6.650;2023-07-13T13:59:16;4.57;;;1.70;;
22024;SDS011;11176;51.448;6.650;2023-07-13T14:01:43;4.45;;;1.50;;
22024;SDS011;11176;51.448;6.650;2023-07-13T14:04:16;3.90;;;1.65;;
22024;SDS011;11176;51.448;6.650;2023-07-13T14:06:44;4.78;;;1.90;;
22024;SDS011;11176;51.448;6.650;2023-07-13T14:09:12;7.07;;;2.00;;
22024;SDS011;11176;51.448;6.650;2023-07-13T14:11:41;5.68;;;1.85;;
22024;SDS011;11176;51.448;6.650;2023-07-13T14:14:11;4.43;;;1.75;;
22024;SDS011;11176;51.448;6.650;2023-07-13T14:16:44;6.45;;;1.77;;
22024;SDS011;11176;51.448;6.650;2023-07-13T14:19:13;4.60;;;1.55;;
22024;SDS011;11176;51.448;6.650;2023-07-13T14:21:40;5.85;;;1.73;;
22024;SDS011;11176;51.448;6.650;2023-07-13T14:24:07;6.50;;;1.88;;
22024;SDS011;11176;51.448;6.650;2023-07-13T14:26:36;4.10;;;1.60;;
22024;SDS011;11176;51.448;6.650;2023-07-13T14:29:05;4.40;;;1.52;;
22024;SDS011;11176;51.448;6.650;2023-07-13T14:31:39;5.82;;;1.90;;
22024;SDS011;11176;51.448;6.650;2023-07-13T14:34:07;5.70;;;1.95;;
22024;SDS011;11176;51.448;6.650;2023-07-13T14:36:39;3.70;;;1.40;;
22024;SDS011;11176;51.448;6.650;2023-07-13T14:41:43;9.15;;;2.00;;
22024;SDS011;11176;51.448;6.650;2023-07-13T14:44:11;5.63;;;1.67;;
22024;SDS011;11176;51.448;6.650;2023-07-13T14:46:38;4.35;;;1.60;;
22024;SDS011;11176;51.448;6.650;2023-07-13T14:52:03;6.10;;;1.60;;
22024;SDS011;11176;51.448;6.650;2023-07-13T14:54:37;5.65;;;1.83;;
22024;SDS011;11176;51.448;6.650;2023-07-13T14:57:10;6.55;;;1.70;;
22024;SDS011;11176;51.448;6.650;2023-07-13T14:59:38;5.18;;;2.00;;
22024;SDS011;11176;51.448;6.650;2023-07-13T15:02:19;4.38;;;2.00;;
22024;SDS011;11176;51.448;6.650;2023-07-13T15:04:57;9.05;;;2.15;;
22024;SDS011;11176;51.448;6.650;2023-07-13T15:07:23;5.43;;;1.70;;
22024;SDS011;11176;51.448;6.650;2023-07-13T15:09:50;3.72;;;1.40;;
22024;SDS011;11176;51.448;6.650;2023-07-13T15:12:17;3.75;;;1.60;;
22024;SDS011;11176;51.448;6.650;2023-07-13T15:14:44;3.28;;;1.33;;
22024;SDS011;11176;51.448;6.650;2023-07-13T15:20:00;3.67;;;1.50;;
22024;SDS011;11176;51.448;6.650;2023-07-13T15:22:26;5.05;;;1.58;;
22024;SDS011;11176;51.448;6.650;2023-07-13T15:24:53;4.85;;;1.50;;
22024;SDS011;11176;51.448;6.650;2023-07-13T15:27:24;3.28;;;1.25;;
22024;SDS011;11176;51.448;6.650;2023-07-13T15:29:50;6.50;;;1.67;;
22024;SDS011;11176;51.448;6.650;2023-07-13T15:32:17;3.17;;;1.38;;
22024;SDS011;11176;51.448;6.650;2023-07-13T15:34:45;3.47;;;1.67;;
22024;SDS011;11176;51.448;6.650;2023-07-13T15:37:15;5.22;;;1.90;;
22024;SDS011;11176;51.448;6.650;2023-07-13T15:39:42;3.40;;;2.03;;
22024;SDS011;11176;51.448;6.650;2023-07-13T15:42:15;3.20;;;1.88;;
22024;SDS011;11176;51.448;6.650;2023-07-13T15:44:42;6.43;;;2.17;;
22024;SDS011;11176;51.448;6.650;2023-07-13T15:47:12;3.80;;;1.73;;
22024;SDS011;11176;51.448;6.650;2023-07-13T15:49:41;4.40;;;1.67;;
22024;SDS011;11176;51.448;6.650;2023-07-13T15:52:15;6.45;;;1.83;;